Stolt Dipper — ZCMY3 — position and weather

sailwx.info

Track history (hours):
 
Tides and Currents Weather Stations Pressure Air Temp Water Temp Dewpoint Dewpoint Depression Visibility Wind Speed Wind Dir Waves Ship Positions

Stolt Dipper

Last reported at 2014-Jul-24 10:31 UTC. Time now 2014-Jul-24 10:46 UTC.
Position N 51°57' E 003°42'.

Length 96 m; draft 4.9 m.

Type: Ship. MMSI: 319036000.

Date/timePositionNaut miles runAvg speedWind from/ knotsBaromVisibWave heightAir tempDewpointWater temp
2014-Jul-24 10:31N 51°57' E 003°42'0 0.0
2014-Jul-24 09:28N 51°57' E 003°42'0 0.0
2014-Jul-24 08:28N 51°57' E 003°42'0 0.0
2014-Jul-24 07:28N 51°57' E 003°42'0 0.0
2014-Jul-24 06:31N 51°57' E 003°42'0 0.0
2014-Jul-24 05:25N 51°57' E 003°42'0 0.0
2014-Jul-24 04:31N 51°57' E 003°42'0 0.1
2014-Jul-24 02:22N 51°57' E 003°42'0 0.0
2014-Jul-24 01:22N 51°57' E 003°42'0 0.0
2014-Jul-24 00:31N 51°57' E 003°42'0 0.0
2014-Jul-23 23:31N 51°57' E 003°42'0 0.1
2014-Jul-23 22:28N 51°57' E 003°42'0 0.0
2014-Jul-23 21:31N 51°57' E 003°42'0 0.0
2014-Jul-23 20:25N 51°57' E 003°42'0 0.0
2014-Jul-23 19:25N 51°57' E 003°42'0 0.0
2014-Jul-23 18:31N 51°57' E 003°42'0 0.0
2014-Jul-23 17:31N 51°57' E 003°42'0 0.0
2014-Jul-23 16:28N 51°57' E 003°42'0 0.0
2014-Jul-23 15:19N 51°57' E 003°42'0 0.1
2014-Jul-23 14:31N 51°57' E 003°42'0 0.1
2014-Jul-23 13:31N 51°57' E 003°42'0 0.0
2014-Jul-23 12:28N 51°57' E 003°42'0 0.0
2014-Jul-23 11:25N 51°57' E 003°42'0 0.0
2014-Jul-23 08:07N 51°57' E 003°42'0 0.0
2014-Jul-23 06:22N 51°57' E 003°42'0 0.0
2014-Jul-23 05:28N 51°57' E 003°42'0 0.0
2014-Jul-23 04:31N 51°57' E 003°42'0 0.0
2014-Jul-23 03:22N 51°57' E 003°42'0 0.0
2014-Jul-23 02:25N 51°57' E 003°42'0 0.1
2014-Jul-23 01:31N 51°57' E 003°42'0 0.0
2014-Jul-23 00:31N 51°57' E 003°42'0 0.0
2014-Jul-22 23:28N 51°57' E 003°42'0 0.1
2014-Jul-22 22:22N 51°57' E 003°42'0 0.1
2014-Jul-22 21:31N 51°57' E 003°42'0 0.0
2014-Jul-22 20:28N 51°57' E 003°42'0 0.0
2014-Jul-22 19:31N 51°57' E 003°42'0 0.0
2014-Jul-22 18:31N 51°57' E 003°42'0 0.0
2014-Jul-22 17:22N 51°57' E 003°42'0 0.0
2014-Jul-22 16:22N 51°57' E 003°42'0 0.0
2014-Jul-22 15:31N 51°57' E 003°42'0 0.0
2014-Jul-22 14:31N 51°57' E 003°42'0 0.0
2014-Jul-22 13:31N 51°57' E 003°42'0 0.0
2014-Jul-22 12:28N 51°57' E 003°42'0 0.0
2014-Jul-22 11:28N 51°57' E 003°42'0 0.0
2014-Jul-22 10:31N 51°57' E 003°42'0 0.1
2014-Jul-22 09:31N 51°57' E 003°42'0 0.1
2014-Jul-22 08:10N 51°57' E 003°42'0 0.0
2014-Jul-22 06:13N 51°57' E 003°42'0 0.0
2014-Jul-22 05:22N 51°57' E 003°42'0 0.0
2014-Jul-22 04:19N 51°57' E 003°42'0 0.0
2014-Jul-22 03:31N 51°57' E 003°42'7 7.4
2014-Jul-22 02:34N 51°55' E 003°31'1110.4
2014-Jul-22 01:33N 51°53' E 003°14'29 7.3
2014-Jul-21 21:33N 52°09' E 002°35'1513.3
2014-Jul-21 20:25N 52°02' E 002°14'112.8
2014-Jul-21 20:18N 52°01' E 002°12'912.1
2014-Jul-21 19:33N 52°00' E 001°57'1212.1
2014-Jul-21 18:33N 52°02' E 001°38'10 9.8
2014-Jul-21 17:33N 51°56' E 001°25'7 6.6
2014-Jul-21 16:33N 51°57' E 001°14'0 0.0
2014-Jul-21 15:33N 51°57' E 001°14'0 0.0
2014-Jul-21 14:33N 51°57' E 001°14'0 0.0
2014-Jul-21 13:33N 51°57' E 001°14'0 0.0
2014-Jul-21 12:33N 51°57' E 001°14'0 0.0
2014-Jul-21 11:33N 51°57' E 001°14'0 0.0
2014-Jul-21 10:33N 51°57' E 001°14'0 0.0
2014-Jul-21 09:33N 51°57' E 001°14'0 0.0
2014-Jul-21 08:33N 51°57' E 001°14'0 0.0
2014-Jul-21 07:33N 51°57' E 001°14'0 0.0
2014-Jul-21 06:32N 51°57' E 001°14'0 0.0
2014-Jul-21 05:32N 51°57' E 001°14'0 0.0
2014-Jul-21 04:32N 51°57' E 001°14'0 0.0
2014-Jul-21 03:33N 51°57' E 001°14'0 0.0
2014-Jul-21 02:32N 51°57' E 001°14'0 0.0
2014-Jul-21 01:32N 51°57' E 001°14'0 0.0
2014-Jul-21 00:33N 51°57' E 001°14'0 0.0
2014-Jul-20 23:33N 51°57' E 001°14'0 0.0
2014-Jul-20 22:30N 51°57' E 001°14'0 0.0
2014-Jul-20 21:33N 51°57' E 001°14'2 2.3
2014-Jul-20 20:34N 51°57' E 001°18'9 9.2
2014-Jul-20 19:33N 51°57' E 001°33'8 8.0
2014-Jul-20 18:33N 52°02' E 001°44'1312.7
2014-Jul-20 17:33N 52°02' E 002°04'4210.5
2014-Jul-20 13:32N 52°03' E 003°13'1313.1
2014-Jul-20 12:33N 52°04' E 003°34'1312.6
2014-Jul-20 11:32N 52°02' E 003°55'1211.8
2014-Jul-20 10:33N 51°57' E 004°11'7 5.7
2014-Jul-20 09:21N 51°54' E 004°22'0 0.0
2014-Jul-20 08:33N 51°54' E 004°22'0 0.0
2014-Jul-20 07:33N 51°54' E 004°22'0 0.0
2014-Jul-20 06:33N 51°54' E 004°22'0 0.0
2014-Jul-20 05:33N 51°54' E 004°22'0 0.0
2014-Jul-20 04:30N 51°54' E 004°22'0 0.0
2014-Jul-20 03:33N 51°54' E 004°22'0 0.0
2014-Jul-20 02:30N 51°54' E 004°22'0 0.0
2014-Jul-20 01:33N 51°54' E 004°22'0 0.0
2014-Jul-20 00:33N 51°54' E 004°22'0 0.0
2014-Jul-19 23:30N 51°54' E 004°22'0 0.0
2014-Jul-19 22:33N 51°54' E 004°22'0 0.0
2014-Jul-19 21:30N 51°54' E 004°22'0 0.0
2014-Jul-19 20:30N 51°54' E 004°22'0 0.0
2014-Jul-19 19:30N 51°54' E 004°22'0 0.0
2014-Jul-19 18:24N 51°54' E 004°22'0 0.0
2014-Jul-19 17:27N 51°54' E 004°22'0 0.0
2014-Jul-19 16:33N 51°54' E 004°22'0 0.0
2014-Jul-19 15:33N 51°54' E 004°22'0 0.0
2014-Jul-19 14:33N 51°54' E 004°22'3 3.1
2014-Jul-19 13:33N 51°54' E 004°16'1010.1
2014-Jul-19 12:33N 51°59' E 004°03'1110.8
2014-Jul-19 11:34N 52°03' E 003°46'4 3.9
2014-Jul-19 10:27N 52°07' E 003°44'0 0.1
2014-Jul-19 08:18N 52°07' E 003°44'0 0.0
2014-Jul-19 06:24N 52°07' E 003°44'0 0.1
2014-Jul-19 05:30N 52°07' E 003°44'1 0.6
2014-Jul-19 03:33N 52°06' E 003°44'1312.8
2014-Jul-19 02:34N 51°60' E 004°02'1210.7
2014-Jul-19 01:26N 51°53' E 004°19'0 0.0
2014-Jul-19 00:32N 51°53' E 004°19'0 0.0
2014-Jul-18 23:32N 51°53' E 004°19'0 0.0
2014-Jul-18 22:32N 51°53' E 004°19'0 0.0
2014-Jul-18 21:32N 51°53' E 004°19'0 0.0
2014-Jul-18 20:32N 51°53' E 004°19'0 0.0
2014-Jul-18 19:32N 51°53' E 004°19'0 0.0
2014-Jul-18 18:32N 51°53' E 004°19'0 0.0
2014-Jul-18 17:32N 51°53' E 004°19'0 0.0
2014-Jul-18 16:32N 51°53' E 004°19'0 0.0
2014-Jul-18 15:32N 51°53' E 004°19'0 0.0
2014-Jul-18 14:32N 51°53' E 004°19'0 0.0
2014-Jul-18 13:32N 51°53' E 004°19'0 0.0
2014-Jul-18 12:32N 51°53' E 004°19'0 0.0
2014-Jul-18 11:32N 51°53' E 004°19'0 0.0
2014-Jul-18 10:26N 51°53' E 004°19'0 0.0
2014-Jul-18 09:32N 51°53' E 004°19'0 0.0
2014-Jul-18 08:32N 51°53' E 004°19'0 0.0
2014-Jul-18 07:17N 51°53' E 004°19'0 0.0
2014-Jul-18 06:26N 51°53' E 004°19'0 0.0
2014-Jul-18 05:32N 51°53' E 004°19'0 0.0
2014-Jul-18 04:32N 51°53' E 004°19'0 0.0
2014-Jul-18 03:29N 51°53' E 004°19'0 0.0
2014-Jul-18 02:29N 51°53' E 004°19'0 0.0
2014-Jul-18 01:32N 51°53' E 004°19'0 0.0
2014-Jul-18 00:32N 51°53' E 004°19'0 0.0
2014-Jul-17 23:32N 51°53' E 004°19'0 0.0
2014-Jul-17 22:32N 51°53' E 004°19'0 0.0
2014-Jul-17 21:32N 51°53' E 004°19'0 0.0
2014-Jul-17 20:31N 51°53' E 004°19'0 0.5
2014-Jul-17 19:33N 51°53' E 004°18'0 0.1
2014-Jul-17 18:29N 51°53' E 004°18'0 0.0
2014-Jul-17 17:29N 51°53' E 004°18'0 0.0
2014-Jul-17 16:32N 51°53' E 004°18'0 0.0
2014-Jul-17 15:32N 51°53' E 004°18'0 0.0
2014-Jul-17 14:17N 51°53' E 004°18'0 0.0
2014-Jul-17 13:32N 51°53' E 004°18'0 0.0
2014-Jul-17 12:32N 51°53' E 004°18'4 3.7
2014-Jul-17 11:33N 51°55' E 004°14'1010.3
2014-Jul-17 10:33N 51°60' E 003°59'8 8.3
2014-Jul-17 09:33N 51°58' E 003°46'1 0.6
2014-Jul-17 08:32N 51°57' E 003°45'0 0.0
2014-Jul-17 07:29N 51°57' E 003°45'0 0.0
2014-Jul-17 06:32N 51°57' E 003°45'0 0.0
2014-Jul-17 05:17N 51°57' E 003°45'0 0.0
2014-Jul-17 04:32N 51°57' E 003°45'0 0.0
2014-Jul-17 03:29N 51°57' E 003°45'0 0.1
2014-Jul-17 02:32N 51°57' E 003°45'0 0.0
2014-Jul-17 01:32N 51°57' E 003°45'0 0.0
2014-Jul-17 00:29N 51°57' E 003°45'0 0.0
2014-Jul-16 23:32N 51°57' E 003°45'0 0.0
2014-Jul-16 22:32N 51°57' E 003°45'0 0.1
2014-Jul-16 20:32N 51°57' E 003°45'0 0.0
2014-Jul-16 19:23N 51°57' E 003°45'0 0.0
2014-Jul-16 18:17N 51°57' E 003°45'0 0.0
2014-Jul-16 17:26N 51°57' E 003°45'0 0.0
2014-Jul-16 16:32N 51°57' E 003°45'0 0.0
2014-Jul-16 15:32N 51°57' E 003°45'0 0.1
2014-Jul-16 14:23N 51°57' E 003°45'0 0.0
2014-Jul-16 13:23N 51°57' E 003°45'0 0.0
2014-Jul-16 12:26N 51°57' E 003°45'0 0.0
2014-Jul-16 11:26N 51°57' E 003°45'0 0.0
2014-Jul-16 10:26N 51°57' E 003°45'0 0.0
2014-Jul-16 09:29N 51°57' E 003°45'0 0.1
2014-Jul-16 08:23N 51°57' E 003°45'2311.2
2014-Jul-16 06:17N 51°51' E 003°08'1013.5
2014-Jul-16 05:33N 51°49' E 002°53'1413.6
2014-Jul-16 04:32N 51°42' E 002°33'1414.9
2014-Jul-16 03:33N 51°31' E 002°18'1514.3
2014-Jul-16 02:32N 51°18' E 002°07'1414.8
2014-Jul-16 01:33N 51°09' E 001°50'1515.1
2014-Jul-16 00:33N 50°59' E 001°32'1313.4
2014-Jul-15 23:33N 50°46' E 001°24'1312.7
2014-Jul-15 22:33N 50°37' E 001°11'1413.0
2014-Jul-15 21:30N 50°30' E 000°52'1612.7
2014-Jul-15 20:13N 50°26' E 000°27'812.0
2014-Jul-15 19:33N 50°24' E 000°15'1111.4
2014-Jul-15 18:33N 50°21' W 000°02'1110.9
2014-Jul-15 17:33N 50°18' W 000°18'1010.1
2014-Jul-15 16:33N 50°16' W 000°34'10 9.8
2014-Jul-15 15:33N 50°17' W 000°49'1010.3
2014-Jul-15 14:33N 50°19' W 001°05'1111.1
2014-Jul-15 13:33N 50°21' W 001°22'1312.8
2014-Jul-15 12:33N 50°19' W 001°42'1514.7
2014-Jul-15 11:33N 50°16' W 002°04'  
Track history (hours):
 
Tides and Currents Weather Stations Pressure Air Temp Water Temp Dewpoint Dewpoint Depression Visibility Wind Speed Wind Dir Waves Ship Positions

Stolt Dipper

Last reported at 2014-Jul-24 10:31 UTC. Time now 2014-Jul-24 10:46 UTC.
Position N 51°57' E 003°42'.

Length 96 m; draft 4.9 m.

Type: Ship. MMSI: 319036000.

Date/timePositionNaut miles runAvg speedWind from/ knotsBaromVisibWave heightAir tempDewpointWater temp
2014-Jul-24 10:31N 51°57' E 003°42'0 0.0
2014-Jul-24 09:28N 51°57' E 003°42'0 0.0
2014-Jul-24 08:28N 51°57' E 003°42'0 0.0
2014-Jul-24 07:28N 51°57' E 003°42'0 0.0
2014-Jul-24 06:31N 51°57' E 003°42'0 0.0
2014-Jul-24 05:25N 51°57' E 003°42'0 0.0
2014-Jul-24 04:31N 51°57' E 003°42'0 0.1
2014-Jul-24 02:22N 51°57' E 003°42'0 0.0
2014-Jul-24 01:22N 51°57' E 003°42'0 0.0
2014-Jul-24 00:31N 51°57' E 003°42'0 0.0
2014-Jul-23 23:31N 51°57' E 003°42'0 0.1
2014-Jul-23 22:28N 51°57' E 003°42'0 0.0
2014-Jul-23 21:31N 51°57' E 003°42'0 0.0
2014-Jul-23 20:25N 51°57' E 003°42'0 0.0
2014-Jul-23 19:25N 51°57' E 003°42'0 0.0
2014-Jul-23 18:31N 51°57' E 003°42'0 0.0
2014-Jul-23 17:31N 51°57' E 003°42'0 0.0
2014-Jul-23 16:28N 51°57' E 003°42'0 0.0
2014-Jul-23 15:19N 51°57' E 003°42'0 0.1
2014-Jul-23 14:31N 51°57' E 003°42'0 0.1
2014-Jul-23 13:31N 51°57' E 003°42'0 0.0
2014-Jul-23 12:28N 51°57' E 003°42'0 0.0
2014-Jul-23 11:25N 51°57' E 003°42'0 0.0
2014-Jul-23 08:07N 51°57' E 003°42'0 0.0
2014-Jul-23 06:22N 51°57' E 003°42'0 0.0
2014-Jul-23 05:28N 51°57' E 003°42'0 0.0
2014-Jul-23 04:31N 51°57' E 003°42'0 0.0
2014-Jul-23 03:22N 51°57' E 003°42'0 0.0
2014-Jul-23 02:25N 51°57' E 003°42'0 0.1
2014-Jul-23 01:31N 51°57' E 003°42'0 0.0
2014-Jul-23 00:31N 51°57' E 003°42'0 0.0
2014-Jul-22 23:28N 51°57' E 003°42'0 0.1
2014-Jul-22 22:22N 51°57' E 003°42'0 0.1
2014-Jul-22 21:31N 51°57' E 003°42'0 0.0
2014-Jul-22 20:28N 51°57' E 003°42'0 0.0
2014-Jul-22 19:31N 51°57' E 003°42'0 0.0
2014-Jul-22 18:31N 51°57' E 003°42'0 0.0
2014-Jul-22 17:22N 51°57' E 003°42'0 0.0
2014-Jul-22 16:22N 51°57' E 003°42'0 0.0
2014-Jul-22 15:31N 51°57' E 003°42'0 0.0
2014-Jul-22 14:31N 51°57' E 003°42'0 0.0
2014-Jul-22 13:31N 51°57' E 003°42'0 0.0
2014-Jul-22 12:28N 51°57' E 003°42'0 0.0
2014-Jul-22 11:28N 51°57' E 003°42'0 0.0
2014-Jul-22 10:31N 51°57' E 003°42'0 0.1
2014-Jul-22 09:31N 51°57' E 003°42'0 0.1
2014-Jul-22 08:10N 51°57' E 003°42'0 0.0
2014-Jul-22 06:13N 51°57' E 003°42'0 0.0
2014-Jul-22 05:22N 51°57' E 003°42'0 0.0
2014-Jul-22 04:19N 51°57' E 003°42'0 0.0
2014-Jul-22 03:31N 51°57' E 003°42'7 7.4
2014-Jul-22 02:34N 51°55' E 003°31'1110.4
2014-Jul-22 01:33N 51°53' E 003°14'29 7.3
2014-Jul-21 21:33N 52°09' E 002°35'1513.3
2014-Jul-21 20:25N 52°02' E 002°14'112.8
2014-Jul-21 20:18N 52°01' E 002°12'912.1
2014-Jul-21 19:33N 52°00' E 001°57'1212.1
2014-Jul-21 18:33N 52°02' E 001°38'10 9.8
2014-Jul-21 17:33N 51°56' E 001°25'7 6.6
2014-Jul-21 16:33N 51°57' E 001°14'0 0.0
2014-Jul-21 15:33N 51°57' E 001°14'0 0.0
2014-Jul-21 14:33N 51°57' E 001°14'0 0.0
2014-Jul-21 13:33N 51°57' E 001°14'0 0.0
2014-Jul-21 12:33N 51°57' E 001°14'0 0.0
2014-Jul-21 11:33N 51°57' E 001°14'0 0.0
2014-Jul-21 10:33N 51°57' E 001°14'0 0.0
2014-Jul-21 09:33N 51°57' E 001°14'0 0.0
2014-Jul-21 08:33N 51°57' E 001°14'0 0.0
2014-Jul-21 07:33N 51°57' E 001°14'0 0.0
2014-Jul-21 06:32N 51°57' E 001°14'0 0.0
2014-Jul-21 05:32N 51°57' E 001°14'0 0.0
2014-Jul-21 04:32N 51°57' E 001°14'0 0.0
2014-Jul-21 03:33N 51°57' E 001°14'0 0.0
2014-Jul-21 02:32N 51°57' E 001°14'0 0.0
2014-Jul-21 01:32N 51°57' E 001°14'0 0.0
2014-Jul-21 00:33N 51°57' E 001°14'0 0.0
2014-Jul-20 23:33N 51°57' E 001°14'0 0.0
2014-Jul-20 22:30N 51°57' E 001°14'0 0.0
2014-Jul-20 21:33N 51°57' E 001°14'2 2.3
2014-Jul-20 20:34N 51°57' E 001°18'9 9.2
2014-Jul-20 19:33N 51°57' E 001°33'8 8.0
2014-Jul-20 18:33N 52°02' E 001°44'1312.7
2014-Jul-20 17:33N 52°02' E 002°04'4210.5
2014-Jul-20 13:32N 52°03' E 003°13'1313.1
2014-Jul-20 12:33N 52°04' E 003°34'1312.6
2014-Jul-20 11:32N 52°02' E 003°55'1211.8
2014-Jul-20 10:33N 51°57' E 004°11'7 5.7
2014-Jul-20 09:21N 51°54' E 004°22'0 0.0
2014-Jul-20 08:33N 51°54' E 004°22'0 0.0
2014-Jul-20 07:33N 51°54' E 004°22'0 0.0
2014-Jul-20 06:33N 51°54' E 004°22'0 0.0
2014-Jul-20 05:33N 51°54' E 004°22'0 0.0
2014-Jul-20 04:30N 51°54' E 004°22'0 0.0
2014-Jul-20 03:33N 51°54' E 004°22'0 0.0
2014-Jul-20 02:30N 51°54' E 004°22'0 0.0
2014-Jul-20 01:33N 51°54' E 004°22'0 0.0
2014-Jul-20 00:33N 51°54' E 004°22'0 0.0
2014-Jul-19 23:30N 51°54' E 004°22'0 0.0
2014-Jul-19 22:33N 51°54' E 004°22'0 0.0
2014-Jul-19 21:30N 51°54' E 004°22'0 0.0
2014-Jul-19 20:30N 51°54' E 004°22'0 0.0
2014-Jul-19 19:30N 51°54' E 004°22'0 0.0
2014-Jul-19 18:24N 51°54' E 004°22'0 0.0
2014-Jul-19 17:27N 51°54' E 004°22'0 0.0
2014-Jul-19 16:33N 51°54' E 004°22'0 0.0
2014-Jul-19 15:33N 51°54' E 004°22'0 0.0
2014-Jul-19 14:33N 51°54' E 004°22'3 3.1
2014-Jul-19 13:33N 51°54' E 004°16'1010.1
2014-Jul-19 12:33N 51°59' E 004°03'1110.8
2014-Jul-19 11:34N 52°03' E 003°46'4 3.9
2014-Jul-19 10:27N 52°07' E 003°44'0 0.1
2014-Jul-19 08:18N 52°07' E 003°44'0 0.0
2014-Jul-19 06:24N 52°07' E 003°44'0 0.1
2014-Jul-19 05:30N 52°07' E 003°44'1 0.6
2014-Jul-19 03:33N 52°06' E 003°44'1312.8
2014-Jul-19 02:34N 51°60' E 004°02'1210.7
2014-Jul-19 01:26N 51°53' E 004°19'0 0.0
2014-Jul-19 00:32N 51°53' E 004°19'0 0.0
2014-Jul-18 23:32N 51°53' E 004°19'0 0.0
2014-Jul-18 22:32N 51°53' E 004°19'0 0.0
2014-Jul-18 21:32N 51°53' E 004°19'0 0.0
2014-Jul-18 20:32N 51°53' E 004°19'0 0.0
2014-Jul-18 19:32N 51°53' E 004°19'0 0.0
2014-Jul-18 18:32N 51°53' E 004°19'0 0.0
2014-Jul-18 17:32N 51°53' E 004°19'0 0.0
2014-Jul-18 16:32N 51°53' E 004°19'0 0.0
2014-Jul-18 15:32N 51°53' E 004°19'0 0.0
2014-Jul-18 14:32N 51°53' E 004°19'0 0.0
2014-Jul-18 13:32N 51°53' E 004°19'0 0.0
2014-Jul-18 12:32N 51°53' E 004°19'0 0.0
2014-Jul-18 11:32N 51°53' E 004°19'0 0.0
2014-Jul-18 10:26N 51°53' E 004°19'0 0.0
2014-Jul-18 09:32N 51°53' E 004°19'0 0.0
2014-Jul-18 08:32N 51°53' E 004°19'0 0.0
2014-Jul-18 07:17N 51°53' E 004°19'0 0.0
2014-Jul-18 06:26N 51°53' E 004°19'0 0.0
2014-Jul-18 05:32N 51°53' E 004°19'0 0.0
2014-Jul-18 04:32N 51°53' E 004°19'0 0.0
2014-Jul-18 03:29N 51°53' E 004°19'0 0.0
2014-Jul-18 02:29N 51°53' E 004°19'0 0.0
2014-Jul-18 01:32N 51°53' E 004°19'0 0.0
2014-Jul-18 00:32N 51°53' E 004°19'0 0.0
2014-Jul-17 23:32N 51°53' E 004°19'0 0.0
2014-Jul-17 22:32N 51°53' E 004°19'0 0.0
2014-Jul-17 21:32N 51°53' E 004°19'0 0.0
2014-Jul-17 20:31N 51°53' E 004°19'0 0.5
2014-Jul-17 19:33N 51°53' E 004°18'0 0.1
2014-Jul-17 18:29N 51°53' E 004°18'0 0.0
2014-Jul-17 17:29N 51°53' E 004°18'0 0.0
2014-Jul-17 16:32N 51°53' E 004°18'0 0.0
2014-Jul-17 15:32N 51°53' E 004°18'0 0.0
2014-Jul-17 14:17N 51°53' E 004°18'0 0.0
2014-Jul-17 13:32N 51°53' E 004°18'0 0.0
2014-Jul-17 12:32N 51°53' E 004°18'4 3.7
2014-Jul-17 11:33N 51°55' E 004°14'1010.3
2014-Jul-17 10:33N 51°60' E 003°59'8 8.3
2014-Jul-17 09:33N 51°58' E 003°46'1 0.6
2014-Jul-17 08:32N 51°57' E 003°45'0 0.0
2014-Jul-17 07:29N 51°57' E 003°45'0 0.0
2014-Jul-17 06:32N 51°57' E 003°45'0 0.0
2014-Jul-17 05:17N 51°57' E 003°45'0 0.0
2014-Jul-17 04:32N 51°57' E 003°45'0 0.0
2014-Jul-17 03:29N 51°57' E 003°45'0 0.1
2014-Jul-17 02:32N 51°57' E 003°45'0 0.0
2014-Jul-17 01:32N 51°57' E 003°45'0 0.0
2014-Jul-17 00:29N 51°57' E 003°45'0 0.0
2014-Jul-16 23:32N 51°57' E 003°45'0 0.0
2014-Jul-16 22:32N 51°57' E 003°45'0 0.1
2014-Jul-16 20:32N 51°57' E 003°45'0 0.0
2014-Jul-16 19:23N 51°57' E 003°45'0 0.0
2014-Jul-16 18:17N 51°57' E 003°45'0 0.0
2014-Jul-16 17:26N 51°57' E 003°45'0 0.0
2014-Jul-16 16:32N 51°57' E 003°45'0 0.0
2014-Jul-16 15:32N 51°57' E 003°45'0 0.1
2014-Jul-16 14:23N 51°57' E 003°45'0 0.0
2014-Jul-16 13:23N 51°57' E 003°45'0 0.0
2014-Jul-16 12:26N 51°57' E 003°45'0 0.0
2014-Jul-16 11:26N 51°57' E 003°45'0 0.0
2014-Jul-16 10:26N 51°57' E 003°45'0 0.0
2014-Jul-16 09:29N 51°57' E 003°45'0 0.1
2014-Jul-16 08:23N 51°57' E 003°45'2311.2
2014-Jul-16 06:17N 51°51' E 003°08'1013.5
2014-Jul-16 05:33N 51°49' E 002°53'1413.6
2014-Jul-16 04:32N 51°42' E 002°33'1414.9
2014-Jul-16 03:33N 51°31' E 002°18'1514.3
2014-Jul-16 02:32N 51°18' E 002°07'1414.8
2014-Jul-16 01:33N 51°09' E 001°50'1515.1
2014-Jul-16 00:33N 50°59' E 001°32'1313.4
2014-Jul-15 23:33N 50°46' E 001°24'1312.7
2014-Jul-15 22:33N 50°37' E 001°11'1413.0
2014-Jul-15 21:30N 50°30' E 000°52'1612.7
2014-Jul-15 20:13N 50°26' E 000°27'812.0
2014-Jul-15 19:33N 50°24' E 000°15'1111.4
2014-Jul-15 18:33N 50°21' W 000°02'1110.9
2014-Jul-15 17:33N 50°18' W 000°18'1010.1
2014-Jul-15 16:33N 50°16' W 000°34'10 9.8
2014-Jul-15 15:33N 50°17' W 000°49'1010.3
2014-Jul-15 14:33N 50°19' W 001°05'1111.1
2014-Jul-15 13:33N 50°21' W 001°22'1312.8
2014-Jul-15 12:33N 50°19' W 001°42'1514.7
2014-Jul-15 11:33N 50°16' W 002°04'  

Dump ship's entire track history